createdAt,value
2023-04-15T00:01:02.607Z,9.45
2023-04-15T00:03:29.740Z,9.63
2023-04-15T00:05:57.540Z,9.00
2023-04-15T00:08:24.372Z,8.90
2023-04-15T00:10:50.983Z,9.15
2023-04-15T00:13:17.597Z,8.80
2023-04-15T00:15:44.599Z,9.25
2023-04-15T00:18:11.243Z,9.20
2023-04-15T00:20:37.892Z,8.63
2023-04-15T00:23:05.515Z,9.32
2023-04-15T00:25:32.138Z,9.70
2023-04-15T00:27:58.777Z,8.90
2023-04-15T00:30:26.460Z,9.18
2023-04-15T00:32:53.505Z,9.93
2023-04-15T00:35:20.634Z,9.80
2023-04-15T00:37:47.267Z,9.98
2023-04-15T00:40:14.109Z,10.40
2023-04-15T00:42:41.094Z,10.35
2023-04-15T00:45:08.819Z,10.27
2023-04-15T00:47:37.160Z,10.02
2023-04-15T00:50:04.913Z,10.27
2023-04-15T00:52:32.000Z,9.88
2023-04-15T00:54:58.958Z,9.40
2023-04-15T00:57:25.583Z,9.40
2023-04-15T00:59:52.748Z,10.18
2023-04-15T01:02:19.731Z,10.55
2023-04-15T01:04:47.012Z,10.93
2023-04-15T01:07:13.628Z,10.00
2023-04-15T01:09:40.718Z,10.80
2023-04-15T01:12:08.513Z,11.00
2023-04-15T01:14:35.138Z,10.68
2023-04-15T01:17:02.200Z,11.18
2023-04-15T01:19:28.858Z,10.27
2023-04-15T01:21:56.316Z,10.25
2023-04-15T01:24:22.960Z,10.23
2023-04-15T01:26:50.355Z,10.73
2023-04-15T01:29:16.953Z,10.38
2023-04-15T01:31:54.040Z,10.00
2023-04-15T01:34:21.040Z,9.60
2023-04-15T01:36:47.856Z,10.82
2023-04-15T01:39:14.830Z,11.20
2023-04-15T01:41:42.358Z,10.70
2023-04-15T01:44:08.994Z,9.75
2023-04-15T01:46:35.798Z,11.07
2023-04-15T01:49:02.646Z,10.55
2023-04-15T01:51:29.451Z,10.65
2023-04-15T01:53:58.834Z,10.93
2023-04-15T01:56:25.501Z,10.77
2023-04-15T01:58:52.468Z,10.88
2023-04-15T02:01:22.238Z,10.93
2023-04-15T02:03:49.101Z,10.77
2023-04-15T02:06:15.927Z,11.25
2023-04-15T02:08:42.556Z,11.27
2023-04-15T02:11:09.284Z,10.98
2023-04-15T02:13:36.275Z,10.30
2023-04-15T02:16:03.331Z,9.93
2023-04-15T02:18:29.991Z,11.10
2023-04-15T02:20:58.337Z,10.27
2023-04-15T02:23:24.986Z,9.93
2023-04-15T02:25:53.480Z,10.02
2023-04-15T02:28:21.257Z,9.23
2023-04-15T02:30:50.924Z,9.88
2023-04-15T02:33:18.003Z,10.30
2023-04-15T02:35:45.426Z,10.15
2023-04-15T02:38:12.369Z,9.48
2023-04-15T02:40:38.996Z,10.30
2023-04-15T02:43:07.033Z,10.35
2023-04-15T02:45:33.827Z,10.50
2023-04-15T02:48:03.889Z,10.48
2023-04-15T02:50:31.549Z,10.23
2023-04-15T02:52:58.202Z,11.20
2023-04-15T02:55:24.799Z,10.48
2023-04-15T02:57:51.428Z,11.05
2023-04-15T03:00:18.066Z,12.93
2023-04-15T03:02:45.720Z,11.85
2023-04-15T03:05:13.305Z,10.88
2023-04-15T03:07:40.941Z,12.02
2023-04-15T03:10:08.372Z,11.38
2023-04-15T03:12:34.979Z,11.93
2023-04-15T03:15:02.079Z,10.93
2023-04-15T03:17:28.716Z,11.88
2023-04-15T03:19:55.386Z,12.88
2023-04-15T03:22:22.012Z,11.88
2023-04-15T03:24:48.633Z,13.18
2023-04-15T03:27:15.354Z,12.23
2023-04-15T03:29:41.964Z,12.15
2023-04-15T03:32:08.612Z,12.80
2023-04-15T03:34:35.214Z,12.98
2023-04-15T03:37:01.849Z,12.48
2023-04-15T03:39:28.443Z,13.20
2023-04-15T03:41:55.042Z,12.73
2023-04-15T03:44:21.657Z,12.80
2023-04-15T03:46:48.387Z,12.80
2023-04-15T03:49:15.365Z,13.23
2023-04-15T03:51:41.970Z,13.63
2023-04-15T03:54:08.594Z,12.95
2023-04-15T03:56:35.395Z,13.02
2023-04-15T03:59:02.424Z,12.73
2023-04-15T04:01:29.187Z,11.52
2023-04-15T04:03:56.075Z,13.57
2023-04-15T04:06:22.834Z,12.73
2023-04-15T04:08:49.436Z,12.75
2023-04-15T04:11:16.190Z,12.77
2023-04-15T04:13:42.799Z,13.05
2023-04-15T04:16:09.466Z,13.02
2023-04-15T04:18:36.336Z,12.70
2023-04-15T04:21:02.943Z,12.65
2023-04-15T04:23:29.559Z,13.02
2023-04-15T04:25:56.417Z,12.45
2023-04-15T04:28:23.018Z,12.93
2023-04-15T04:30:49.736Z,12.57
2023-04-15T04:33:16.448Z,13.38
2023-04-15T04:35:43.146Z,13.32
2023-04-15T04:38:09.756Z,13.63
2023-04-15T04:40:36.765Z,12.20
2023-04-15T04:43:03.389Z,12.38
2023-04-15T04:45:30.001Z,13.07
2023-04-15T04:47:56.684Z,12.38
2023-04-15T04:50:23.308Z,13.25
2023-04-15T04:52:49.925Z,14.57
2023-04-15T04:55:16.688Z,14.52
2023-04-15T04:57:43.289Z,14.27
2023-04-15T05:00:10.321Z,15.13
2023-04-15T05:02:37.159Z,14.52
2023-04-15T05:05:03.951Z,14.00
2023-04-15T05:07:30.581Z,14.05
2023-04-15T05:10:00.280Z,14.55
2023-04-15T05:12:27.190Z,14.07
2023-04-15T05:14:53.783Z,14.65
2023-04-15T05:17:20.648Z,14.88
2023-04-15T05:19:47.301Z,14.55
2023-04-15T05:22:13.885Z,14.68
2023-04-15T05:24:40.581Z,14.88
2023-04-15T05:27:08.502Z,15.50
2023-04-15T05:29:35.122Z,14.93
2023-04-15T05:32:01.707Z,14.95
2023-04-15T05:34:28.335Z,15.43
2023-04-15T05:36:54.935Z,15.10
2023-04-15T05:39:21.962Z,15.90
2023-04-15T05:41:48.559Z,15.45
2023-04-15T05:44:15.166Z,16.48
2023-04-15T05:46:41.828Z,17.45
2023-04-15T05:49:08.546Z,17.60
2023-04-15T05:51:35.771Z,16.23
2023-04-15T05:54:02.374Z,17.17
2023-04-15T05:56:28.980Z,17.67
2023-04-15T05:58:55.583Z,17.42
2023-04-15T06:01:22.349Z,17.23
2023-04-15T06:03:49.064Z,17.05
2023-04-15T06:06:15.756Z,16.80
2023-04-15T06:08:42.535Z,17.08
2023-04-15T06:11:09.134Z,17.58
2023-04-15T06:13:35.746Z,17.27
2023-04-15T06:16:02.390Z,16.60
2023-04-15T06:18:29.039Z,16.35
2023-04-15T06:20:55.656Z,15.40
2023-04-15T06:23:22.297Z,16.00
2023-04-15T06:25:49.058Z,15.45
2023-04-15T06:28:15.668Z,15.48
2023-04-15T06:30:42.274Z,16.00
2023-04-15T06:33:10.537Z,15.07
2023-04-15T06:35:37.164Z,15.68
2023-04-15T06:38:03.791Z,15.27
2023-04-15T06:40:30.554Z,16.15
2023-04-15T06:42:57.178Z,15.75
2023-04-15T06:45:24.915Z,14.63
2023-04-15T06:47:51.708Z,15.57
2023-04-15T06:50:18.382Z,15.57
2023-04-15T06:52:45.034Z,15.68
2023-04-15T06:55:11.827Z,16.48
2023-04-15T06:57:38.449Z,15.82
2023-04-15T07:00:05.959Z,16.20
2023-04-15T07:02:32.625Z,15.70
2023-04-15T07:04:59.345Z,15.65
2023-04-15T07:07:26.366Z,15.23
2023-04-15T07:09:53.801Z,15.95
2023-04-15T07:12:20.771Z,16.90
2023-04-15T07:14:47.402Z,16.55
2023-04-15T07:17:14.060Z,16.35
2023-04-15T07:19:40.758Z,16.48
2023-04-15T07:22:07.756Z,16.58
2023-04-15T07:24:34.391Z,15.75
2023-04-15T07:27:01.937Z,15.82
2023-04-15T07:29:28.556Z,16.73
2023-04-15T07:31:57.162Z,17.67
2023-04-15T07:34:24.572Z,17.52
2023-04-15T07:36:51.930Z,17.25
2023-04-15T07:39:19.002Z,17.75
2023-04-15T07:41:46.486Z,19.10
2023-04-15T07:44:13.146Z,18.27
2023-04-15T07:46:40.024Z,18.88
2023-04-15T07:49:07.446Z,18.58
2023-04-15T07:51:34.065Z,18.55
2023-04-15T07:54:00.670Z,18.85
2023-04-15T07:56:27.750Z,17.77
2023-04-15T07:58:54.416Z,17.75
2023-04-15T08:01:21.006Z,18.45
2023-04-15T08:03:48.541Z,18.40
2023-04-15T08:06:15.246Z,19.33
2023-04-15T08:08:41.884Z,19.58
2023-04-15T08:11:08.789Z,19.67
2023-04-15T08:13:35.537Z,17.92
2023-04-15T08:16:22.447Z,17.38
2023-04-15T08:18:49.588Z,16.75
2023-04-15T08:21:16.777Z,16.65
2023-04-15T08:23:43.822Z,15.32
2023-04-15T08:26:10.541Z,16.98
2023-04-15T08:28:38.901Z,16.65
2023-04-15T08:31:05.708Z,16.70
2023-04-15T08:33:32.483Z,17.30
2023-04-15T08:35:59.156Z,16.17
2023-04-15T08:38:25.917Z,14.48
2023-04-15T08:40:52.647Z,14.90
2023-04-15T08:43:24.154Z,15.13
2023-04-15T08:45:52.090Z,13.73
2023-04-15T08:48:18.936Z,14.68
2023-04-15T08:50:46.226Z,14.82
2023-04-15T08:53:12.884Z,13.60
2023-04-15T08:55:46.427Z,14.32
2023-04-15T08:58:14.232Z,12.30
2023-04-15T09:00:41.403Z,11.90
2023-04-15T09:03:08.880Z,12.25
2023-04-15T09:05:36.066Z,11.75
2023-04-15T09:08:02.801Z,10.60
2023-04-15T09:10:29.633Z,10.43
2023-04-15T09:12:56.576Z,9.68
2023-04-15T09:15:25.149Z,10.82
2023-04-15T09:17:51.992Z,9.98
2023-04-15T09:20:18.873Z,10.43
2023-04-15T09:22:47.288Z,10.40
2023-04-15T09:25:23.082Z,9.52
2023-04-15T09:27:50.373Z,9.65
2023-04-15T09:30:17.649Z,9.93
2023-04-15T09:32:55.185Z,10.00
2023-04-15T09:35:22.347Z,9.35
2023-04-15T09:37:50.103Z,8.68
2023-04-15T09:40:40.241Z,8.35
2023-04-15T09:43:07.927Z,9.23
2023-04-15T09:45:35.850Z,8.55
2023-04-15T09:48:16.927Z,7.63
2023-04-15T09:50:43.947Z,8.45
2023-04-15T09:53:12.442Z,7.50
2023-04-15T09:55:39.147Z,6.75
2023-04-15T09:58:25.114Z,6.60
2023-04-15T10:00:52.311Z,6.82
2023-04-15T10:03:32.392Z,6.80
2023-04-15T10:06:00.281Z,6.95
2023-04-15T10:08:28.434Z,5.75
2023-04-15T10:10:55.133Z,6.05
2023-04-15T10:13:25.599Z,5.50
2023-04-15T10:15:55.998Z,5.95
2023-04-15T10:18:23.429Z,5.28
2023-04-15T10:20:50.094Z,4.80
2023-04-15T10:23:17.719Z,4.60
2023-04-15T10:25:44.460Z,4.70
2023-04-15T10:28:11.065Z,4.93
2023-04-15T10:30:37.669Z,4.43
2023-04-15T10:33:04.442Z,4.13
2023-04-15T10:35:31.359Z,4.03
2023-04-15T10:37:58.012Z,3.63
2023-04-15T10:40:28.509Z,4.05
2023-04-15T10:43:00.248Z,4.53
2023-04-15T10:45:34.489Z,4.22
2023-04-15T10:50:32.517Z,4.05
2023-04-15T10:52:59.221Z,4.20
2023-04-15T10:55:27.371Z,3.88
2023-04-15T10:57:55.142Z,4.05
2023-04-15T11:00:25.666Z,4.10
2023-04-15T11:02:54.383Z,4.10
2023-04-15T11:05:43.882Z,3.92
2023-04-15T11:08:10.882Z,3.95
2023-04-15T11:10:37.411Z,4.03
2023-04-15T11:13:11.245Z,3.65
2023-04-15T11:15:42.233Z,4.00
2023-04-15T11:18:12.607Z,3.67
2023-04-15T11:20:39.982Z,3.65
2023-04-15T11:23:13.038Z,3.78
2023-04-15T11:25:43.049Z,3.70
2023-04-15T11:28:09.865Z,3.47
2023-04-15T11:30:37.475Z,3.78
2023-04-15T11:33:09.163Z,3.92
2023-04-15T11:35:36.106Z,4.30
2023-04-15T11:38:06.224Z,3.40
2023-04-15T11:40:37.783Z,3.53
2023-04-15T11:43:25.144Z,3.75
2023-04-15T11:45:53.250Z,16.75
2023-04-15T11:48:23.387Z,6.82
2023-04-15T11:50:54.501Z,5.60
2023-04-15T11:53:27.220Z,4.82
2023-04-15T11:55:54.692Z,5.03
2023-04-15T11:58:23.537Z,4.10
2023-04-15T12:00:52.992Z,3.47
2023-04-15T12:03:27.342Z,3.70
2023-04-15T12:06:16.335Z,3.47
2023-04-15T12:08:55.715Z,3.38
2023-04-15T12:11:42.451Z,4.18
2023-04-15T12:14:15.866Z,3.85
2023-04-15T12:16:48.602Z,4.40
2023-04-15T12:19:18.394Z,4.32
2023-04-15T12:21:46.985Z,4.65
2023-04-15T12:24:13.734Z,4.47
2023-04-15T12:26:54.206Z,4.50
2023-04-15T12:29:24.727Z,5.00
2023-04-15T12:32:21.413Z,5.07
2023-04-15T12:34:51.757Z,5.25
2023-04-15T12:37:18.411Z,5.70
2023-04-15T12:39:46.736Z,5.18
2023-04-15T12:42:14.816Z,5.03
2023-04-15T12:44:41.463Z,5.95
2023-04-15T12:47:08.922Z,6.50
2023-04-15T12:49:35.609Z,8.27
2023-04-15T12:52:02.492Z,5.53
2023-04-15T12:54:29.682Z,5.78
2023-04-15T12:56:56.488Z,6.32
2023-04-15T12:59:24.342Z,6.07
2023-04-15T13:01:52.214Z,6.28
2023-04-15T13:04:19.434Z,6.60
2023-04-15T13:06:46.340Z,6.35
2023-04-15T13:09:13.030Z,5.88
2023-04-15T13:11:39.631Z,6.88
2023-04-15T13:14:07.527Z,7.28
2023-04-15T13:16:34.362Z,5.93
2023-04-15T13:19:01.610Z,6.57
2023-04-15T13:21:28.399Z,6.22
2023-04-15T13:23:55.415Z,7.07
2023-04-15T13:26:22.160Z,6.53
2023-04-15T13:28:48.816Z,6.93
2023-04-15T13:31:15.778Z,6.85
2023-04-15T13:33:42.547Z,6.68
2023-04-15T13:36:09.298Z,6.65
2023-04-15T13:38:36.216Z,6.95
2023-04-15T13:41:02.828Z,6.95
2023-04-15T13:43:29.487Z,7.38
2023-04-15T13:45:56.243Z,7.10
2023-04-15T13:48:22.902Z,8.13
2023-04-15T13:50:49.529Z,8.18
2023-04-15T13:53:16.276Z,8.05
2023-04-15T13:55:43.095Z,8.23
2023-04-15T13:58:10.478Z,8.68
2023-04-15T14:00:37.094Z,8.52
2023-04-15T14:03:03.994Z,8.55
2023-04-15T14:05:30.778Z,8.85
2023-04-15T14:07:57.407Z,8.48
2023-04-15T14:10:24.054Z,9.45
2023-04-15T14:12:51.216Z,10.13
2023-04-15T14:15:19.062Z,10.70
2023-04-15T14:17:46.008Z,9.43
2023-04-15T14:20:14.038Z,9.45
2023-04-15T14:22:42.824Z,10.43
2023-04-15T14:25:10.549Z,10.88
2023-04-15T14:27:39.946Z,10.80
2023-04-15T14:30:07.308Z,11.27
2023-04-15T14:32:34.080Z,11.15
2023-04-15T14:35:00.934Z,11.80
2023-04-15T14:37:28.451Z,11.18
2023-04-15T14:39:55.198Z,11.68
2023-04-15T14:42:21.821Z,11.45
2023-04-15T14:44:48.435Z,11.93
2023-04-15T14:47:15.165Z,12.82
2023-04-15T14:49:41.934Z,12.98
2023-04-15T14:52:08.715Z,12.40
2023-04-15T14:54:35.401Z,13.13
2023-04-15T14:57:02.083Z,12.25
2023-04-15T14:59:28.766Z,13.55
2023-04-15T15:01:55.619Z,13.13
2023-04-15T15:04:22.453Z,13.30
2023-04-15T15:06:49.336Z,13.57
2023-04-15T15:09:16.289Z,13.95
2023-04-15T15:11:45.665Z,13.45
2023-04-15T15:14:12.302Z,13.23
2023-04-15T15:16:39.014Z,14.23
2023-04-15T15:19:06.103Z,14.30
2023-04-15T15:21:33.138Z,12.93
2023-04-15T15:23:59.863Z,13.90
2023-04-15T15:26:28.110Z,15.50
2023-04-15T15:28:54.755Z,14.18
2023-04-15T15:31:21.445Z,15.05
2023-04-15T15:33:48.122Z,14.68
2023-04-15T15:36:14.804Z,14.55
2023-04-15T15:38:41.844Z,14.05
2023-04-15T15:41:08.505Z,14.23
2023-04-15T15:43:35.186Z,14.52
2023-04-15T15:46:01.788Z,15.38
2023-04-15T15:48:28.659Z,14.00
2023-04-15T15:50:55.285Z,14.02
2023-04-15T15:53:24.225Z,14.18
2023-04-15T15:55:53.177Z,14.68
2023-04-15T15:58:20.760Z,13.27
2023-04-15T16:00:47.595Z,14.30
2023-04-15T16:03:15.050Z,14.80
2023-04-15T16:05:41.799Z,14.80
2023-04-15T16:08:08.477Z,14.77
2023-04-15T16:10:35.147Z,14.98
2023-04-15T16:13:02.032Z,16.05
2023-04-15T16:15:28.669Z,15.30
2023-04-15T16:17:55.334Z,16.10
2023-04-15T16:20:22.064Z,14.18
2023-04-15T16:22:48.688Z,14.80
2023-04-15T16:25:15.384Z,15.13
2023-04-15T16:27:57.261Z,16.75
2023-04-15T16:30:28.869Z,15.80
2023-04-15T16:32:56.138Z,14.90
2023-04-15T16:35:22.794Z,14.50
2023-04-15T16:37:49.409Z,14.65
2023-04-15T16:40:16.086Z,14.15
2023-04-15T16:42:43.637Z,15.13
2023-04-15T16:45:10.803Z,15.82
2023-04-15T16:47:37.509Z,16.42
2023-04-15T16:50:04.434Z,17.15
2023-04-15T16:52:31.045Z,15.98
2023-04-15T16:54:57.675Z,17.38
2023-04-15T16:57:24.603Z,18.02
2023-04-15T16:59:53.792Z,18.25
2023-04-15T17:02:20.509Z,19.42
2023-04-15T17:04:47.212Z,20.17
2023-04-15T17:07:13.960Z,19.83
2023-04-15T17:09:40.711Z,19.67
2023-04-15T17:12:07.536Z,19.23
2023-04-15T17:14:35.006Z,18.40
2023-04-15T17:17:01.824Z,19.85
2023-04-15T17:19:28.687Z,18.77
2023-04-15T17:21:55.344Z,20.30
2023-04-15T17:24:21.984Z,19.02
2023-04-15T17:26:48.695Z,20.20
2023-04-15T17:29:15.401Z,18.80
2023-04-15T17:31:42.290Z,18.35
2023-04-15T17:34:09.824Z,17.02
2023-04-15T17:36:37.958Z,16.65
2023-04-15T17:39:04.834Z,15.18
2023-04-15T17:41:31.632Z,17.02
2023-04-15T17:43:58.283Z,18.23
2023-04-15T17:46:24.964Z,17.05
2023-04-15T17:48:51.629Z,17.60
2023-04-15T17:51:18.313Z,17.70
2023-04-15T17:53:44.957Z,19.52
2023-04-15T17:56:11.588Z,18.38
2023-04-15T17:58:39.183Z,18.63
2023-04-15T18:01:06.270Z,18.77
2023-04-15T18:03:33.228Z,19.02
2023-04-15T18:06:01.251Z,18.08
2023-04-15T18:08:28.777Z,18.90
2023-04-15T18:10:55.468Z,18.45
2023-04-15T18:13:22.089Z,17.75
2023-04-15T18:15:49.467Z,19.80
2023-04-15T18:18:16.183Z,20.08
2023-04-15T18:20:42.818Z,18.73
2023-04-15T18:23:09.425Z,19.65
2023-04-15T18:25:38.053Z,21.00
2023-04-15T18:28:05.341Z,20.80
2023-04-15T18:30:32.017Z,20.08
2023-04-15T18:32:58.694Z,22.45
2023-04-15T18:35:25.350Z,22.33
2023-04-15T18:37:52.820Z,22.73
2023-04-15T18:40:19.552Z,24.38
2023-04-15T18:42:46.219Z,22.23
2023-04-15T18:45:12.902Z,24.02
2023-04-15T18:47:39.540Z,24.63
2023-04-15T18:50:06.936Z,24.33
2023-04-15T18:52:34.105Z,24.60
2023-04-15T18:55:03.089Z,26.23
2023-04-15T18:57:32.782Z,26.85
2023-04-15T19:00:01.601Z,25.88
2023-04-15T19:02:28.397Z,25.70
2023-04-15T19:04:55.213Z,28.17
2023-04-15T19:07:23.049Z,28.15
2023-04-15T19:09:49.725Z,29.52
2023-04-15T19:12:16.350Z,29.67
2023-04-15T19:14:43.085Z,30.63
2023-04-15T19:17:09.717Z,29.80
2023-04-15T19:19:36.715Z,29.63
2023-04-15T19:22:03.392Z,32.08
2023-04-15T19:24:32.951Z,33.42
2023-04-15T19:26:59.882Z,32.15
2023-04-15T19:29:28.480Z,32.50
2023-04-15T19:31:55.285Z,32.45
2023-04-15T19:34:21.933Z,33.05
2023-04-15T19:36:48.589Z,31.52
2023-04-15T19:39:15.411Z,31.92
2023-04-15T19:41:43.921Z,32.33
2023-04-15T19:44:12.809Z,31.42
2023-04-15T19:46:40.379Z,30.85
2023-04-15T19:49:07.280Z,32.38
2023-04-15T19:51:34.112Z,33.85
2023-04-15T19:54:00.796Z,35.78
2023-04-15T19:56:27.494Z,34.33
2023-04-15T19:58:54.723Z,34.83
2023-04-15T20:01:21.743Z,33.88
2023-04-15T20:03:48.687Z,34.90
2023-04-15T20:06:15.589Z,35.40
2023-04-15T20:08:42.227Z,35.42
2023-04-15T20:11:09.386Z,36.20
2023-04-15T20:13:36.161Z,36.22
2023-04-15T20:16:02.899Z,37.47
2023-04-15T20:18:29.569Z,36.45
2023-04-15T20:20:56.223Z,36.90
2023-04-15T20:23:22.822Z,37.00
2023-04-15T20:25:49.466Z,34.72
2023-04-15T20:28:18.023Z,34.38
2023-04-15T20:30:44.899Z,34.13
2023-04-15T20:33:11.569Z,34.28
2023-04-15T20:35:38.890Z,32.78
2023-04-15T20:38:05.674Z,32.80
2023-04-15T20:40:33.671Z,33.83
2023-04-15T20:43:00.538Z,31.45
2023-04-15T20:45:27.148Z,31.67
2023-04-15T20:47:55.177Z,30.20
2023-04-15T20:50:21.826Z,29.77
2023-04-15T20:52:48.455Z,30.48
2023-04-15T20:55:15.360Z,31.60
2023-04-15T20:57:42.011Z,32.88
2023-04-15T21:00:11.850Z,33.10
2023-04-15T21:02:38.779Z,32.50
2023-04-15T21:05:05.858Z,37.30
2023-04-15T21:07:32.675Z,37.55
2023-04-15T21:09:59.350Z,38.58
2023-04-15T21:12:25.952Z,38.90
2023-04-15T21:14:52.572Z,39.35
2023-04-15T21:17:19.274Z,39.75
2023-04-15T21:19:45.915Z,41.20
2023-04-15T21:22:12.514Z,40.30
2023-04-15T21:24:39.131Z,42.17
2023-04-15T21:27:05.829Z,41.25
2023-04-15T21:29:32.514Z,42.50
2023-04-15T21:31:59.144Z,40.80
2023-04-15T21:34:25.771Z,42.72
2023-04-15T21:36:52.402Z,44.95
2023-04-15T21:39:19.013Z,43.92
2023-04-15T21:41:45.698Z,43.78
2023-04-15T21:44:14.397Z,43.38
2023-04-15T21:46:41.568Z,44.35
2023-04-15T21:49:12.399Z,43.15
2023-04-15T21:51:39.021Z,45.05
2023-04-15T21:54:05.614Z,43.60
2023-04-15T21:56:32.490Z,43.22
2023-04-15T21:58:59.153Z,42.78
2023-04-15T22:01:26.232Z,43.05
2023-04-15T22:03:52.947Z,42.92
2023-04-15T22:06:19.776Z,42.47
2023-04-15T22:08:56.256Z,43.22
2023-04-15T22:11:27.224Z,45.03
2023-04-15T22:13:54.704Z,42.63
2023-04-15T22:16:21.444Z,40.80
2023-04-15T22:18:48.148Z,41.28
2023-04-15T22:21:14.781Z,43.30
2023-04-15T22:23:41.474Z,42.75
2023-04-15T22:26:08.086Z,42.67
2023-04-15T22:28:34.673Z,44.40
2023-04-15T22:31:02.146Z,43.50
2023-04-15T22:33:29.016Z,44.97
2023-04-15T22:35:55.631Z,45.15
2023-04-15T22:38:22.225Z,43.75
2023-04-15T22:40:48.828Z,45.55
2023-04-15T22:43:15.434Z,44.40
2023-04-15T22:45:42.046Z,45.00
2023-04-15T22:48:08.630Z,46.80
2023-04-15T22:50:37.243Z,45.00
2023-04-15T22:53:03.856Z,43.33
2023-04-15T22:55:30.586Z,44.40
2023-04-15T22:57:57.380Z,41.97
2023-04-15T23:00:23.994Z,44.83
2023-04-15T23:02:50.692Z,43.95
2023-04-15T23:05:17.552Z,44.58
2023-04-15T23:07:44.194Z,44.53
2023-04-15T23:10:11.109Z,45.78
2023-04-15T23:12:37.710Z,44.45
2023-04-15T23:15:04.572Z,44.95
2023-04-15T23:17:31.258Z,45.20
2023-04-15T23:19:57.903Z,44.67
2023-04-15T23:22:24.503Z,43.95
2023-04-15T23:24:51.109Z,43.45
2023-04-15T23:27:18.959Z,46.33
2023-04-15T23:29:46.010Z,45.22
2023-04-15T23:32:12.617Z,44.45
2023-04-15T23:34:39.224Z,45.33
2023-04-15T23:37:05.849Z,46.13
2023-04-15T23:39:32.524Z,44.55
2023-04-15T23:41:59.174Z,42.35
2023-04-15T23:44:26.049Z,44.30
2023-04-15T23:46:52.801Z,44.10
2023-04-15T23:49:20.441Z,43.20
2023-04-15T23:51:47.298Z,43.10
2023-04-15T23:54:14.378Z,42.22
2023-04-15T23:56:40.982Z,43.42
2023-04-15T23:59:07.743Z,43.42
